sensor_id;sensor_type;location;lat;lon;timestamp;P1;durP1;ratioP1;P2;durP2;ratioP2
6791;SDS011;3433;48.730;9.108;2023-07-20T00:01:52;6.20;;;2.53;;
6791;SDS011;3433;48.730;9.108;2023-07-20T00:04:40;4.87;;;2.90;;
6791;SDS011;3433;48.730;9.108;2023-07-20T00:07:27;4.77;;;2.80;;
6791;SDS011;3433;48.730;9.108;2023-07-20T00:10:15;4.53;;;2.43;;
6791;SDS011;3433;48.730;9.108;2023-07-20T00:13:02;2.17;;;1.97;;
6791;SDS011;3433;48.730;9.108;2023-07-20T00:15:50;4.77;;;2.30;;
6791;SDS011;3433;48.730;9.108;2023-07-20T00:18:37;2.33;;;2.13;;
6791;SDS011;3433;48.730;9.108;2023-07-20T00:21:26;3.50;;;2.03;;
6791;SDS011;3433;48.730;9.108;2023-07-20T00:24:13;3.10;;;2.27;;
6791;SDS011;3433;48.730;9.108;2023-07-20T00:27:00;3.00;;;2.60;;
6791;SDS011;3433;48.730;9.108;2023-07-20T00:29:48;4.97;;;2.53;;
6791;SDS011;3433;48.730;9.108;2023-07-20T00:32:35;4.80;;;2.30;;
6791;SDS011;3433;48.730;9.108;2023-07-20T00:35:22;3.90;;;2.63;;
6791;SDS011;3433;48.730;9.108;2023-07-20T00:38:11;3.80;;;2.30;;
6791;SDS011;3433;48.730;9.108;2023-07-20T00:40:58;3.37;;;2.87;;
6791;SDS011;3433;48.730;9.108;2023-07-20T00:43:45;4.73;;;2.80;;
6791;SDS011;3433;48.730;9.108;2023-07-20T00:46:32;3.37;;;2.20;;
6791;SDS011;3433;48.730;9.108;2023-07-20T00:49:20;3.57;;;2.57;;
6791;SDS011;3433;48.730;9.108;2023-07-20T00:52:07;3.63;;;2.43;;
6791;SDS011;3433;48.730;9.108;2023-07-20T00:54:58;3.07;;;2.77;;
6791;SDS011;3433;48.730;9.108;2023-07-20T00:57:45;4.13;;;2.37;;
6791;SDS011;3433;48.730;9.108;2023-07-20T01:00:33;2.67;;;2.13;;
6791;SDS011;3433;48.730;9.108;2023-07-20T01:03:20;3.50;;;2.10;;
6791;SDS011;3433;48.730;9.108;2023-07-20T01:06:10;4.27;;;2.20;;
6791;SDS011;3433;48.730;9.108;2023-07-20T01:09:09;2.23;;;2.00;;
6791;SDS011;3433;48.730;9.108;2023-07-20T01:12:02;2.33;;;2.13;;
6791;SDS011;3433;48.730;9.108;2023-07-20T01:14:54;4.80;;;2.53;;
6791;SDS011;3433;48.730;9.108;2023-07-20T01:17:41;6.40;;;2.37;;
6791;SDS011;3433;48.730;9.108;2023-07-20T01:20:29;4.47;;;2.50;;
6791;SDS011;3433;48.730;9.108;2023-07-20T01:26:37;2.77;;;2.37;;
6791;SDS011;3433;48.730;9.108;2023-07-20T01:29:51;2.63;;;2.20;;
6791;SDS011;3433;48.730;9.108;2023-07-20T01:32:51;2.80;;;2.40;;
6791;SDS011;3433;48.730;9.108;2023-07-20T01:35:41;3.33;;;2.47;;
6791;SDS011;3433;48.730;9.108;2023-07-20T01:38:31;8.17;;;2.90;;
6791;SDS011;3433;48.730;9.108;2023-07-20T01:41:18;2.63;;;2.33;;
6791;SDS011;3433;48.730;9.108;2023-07-20T01:44:06;4.57;;;2.60;;
6791;SDS011;3433;48.730;9.108;2023-07-20T01:46:54;3.43;;;2.80;;
6791;SDS011;3433;48.730;9.108;2023-07-20T01:49:43;2.97;;;2.20;;
6791;SDS011;3433;48.730;9.108;2023-07-20T01:52:30;2.30;;;2.10;;
6791;SDS011;3433;48.730;9.108;2023-07-20T01:55:17;3.13;;;1.90;;
6791;SDS011;3433;48.730;9.108;2023-07-20T01:58:04;2.73;;;2.40;;
6791;SDS011;3433;48.730;9.108;2023-07-20T02:00:52;4.13;;;2.50;;
6791;SDS011;3433;48.730;9.108;2023-07-20T02:03:39;4.10;;;2.13;;
6791;SDS011;3433;48.730;9.108;2023-07-20T02:06:27;4.03;;;2.20;;
6791;SDS011;3433;48.730;9.108;2023-07-20T02:09:15;4.83;;;2.23;;
6791;SDS011;3433;48.730;9.108;2023-07-20T02:12:02;2.93;;;2.63;;
6791;SDS011;3433;48.730;9.108;2023-07-20T02:14:49;4.60;;;2.50;;
6791;SDS011;3433;48.730;9.108;2023-07-20T02:17:37;2.70;;;2.50;;
6791;SDS011;3433;48.730;9.108;2023-07-20T02:20:26;7.07;;;2.57;;
6791;SDS011;3433;48.730;9.108;2023-07-20T02:23:15;4.47;;;3.17;;
6791;SDS011;3433;48.730;9.108;2023-07-20T02:26:03;3.10;;;2.30;;
6791;SDS011;3433;48.730;9.108;2023-07-20T02:28:50;2.47;;;2.27;;
6791;SDS011;3433;48.730;9.108;2023-07-20T02:31:37;3.73;;;2.60;;
6791;SDS011;3433;48.730;9.108;2023-07-20T02:34:24;4.00;;;2.40;;
6791;SDS011;3433;48.730;9.108;2023-07-20T02:37:12;3.97;;;2.77;;
6791;SDS011;3433;48.730;9.108;2023-07-20T02:40:00;3.20;;;2.23;;
6791;SDS011;3433;48.730;9.108;2023-07-20T02:42:49;3.50;;;2.50;;
6791;SDS011;3433;48.730;9.108;2023-07-20T02:45:39;4.33;;;2.70;;
6791;SDS011;3433;48.730;9.108;2023-07-20T02:48:28;3.80;;;2.40;;
6791;SDS011;3433;48.730;9.108;2023-07-20T02:51:15;3.60;;;2.47;;
6791;SDS011;3433;48.730;9.108;2023-07-20T02:54:02;3.67;;;2.57;;
6791;SDS011;3433;48.730;9.108;2023-07-20T02:56:51;3.00;;;2.27;;
6791;SDS011;3433;48.730;9.108;2023-07-20T02:59:38;3.83;;;2.90;;
6791;SDS011;3433;48.730;9.108;2023-07-20T03:02:26;3.53;;;2.20;;
6791;SDS011;3433;48.730;9.108;2023-07-20T03:05:16;7.83;;;2.30;;
6791;SDS011;3433;48.730;9.108;2023-07-20T03:08:03;2.77;;;2.40;;
6791;SDS011;3433;48.730;9.108;2023-07-20T03:10:51;2.60;;;2.20;;
6791;SDS011;3433;48.730;9.108;2023-07-20T03:13:40;3.47;;;2.43;;
6791;SDS011;3433;48.730;9.108;2023-07-20T03:16:27;3.83;;;2.97;;
6791;SDS011;3433;48.730;9.108;2023-07-20T03:19:15;3.40;;;2.10;;
6791;SDS011;3433;48.730;9.108;2023-07-20T03:22:03;7.03;;;2.70;;
6791;SDS011;3433;48.730;9.108;2023-07-20T03:24:50;3.13;;;2.40;;
6791;SDS011;3433;48.730;9.108;2023-07-20T03:27:37;3.63;;;2.30;;
6791;SDS011;3433;48.730;9.108;2023-07-20T03:30:26;2.87;;;2.33;;
6791;SDS011;3433;48.730;9.108;2023-07-20T03:33:13;4.17;;;2.70;;
6791;SDS011;3433;48.730;9.108;2023-07-20T03:36:00;4.43;;;2.33;;
6791;SDS011;3433;48.730;9.108;2023-07-20T03:38:48;3.17;;;2.10;;
6791;SDS011;3433;48.730;9.108;2023-07-20T03:41:35;4.77;;;3.30;;
6791;SDS011;3433;48.730;9.108;2023-07-20T03:44:23;5.20;;;4.00;;
6791;SDS011;3433;48.730;9.108;2023-07-20T03:47:11;2.40;;;2.20;;
6791;SDS011;3433;48.730;9.108;2023-07-20T03:49:58;2.37;;;2.20;;
6791;SDS011;3433;48.730;9.108;2023-07-20T03:52:46;2.73;;;2.53;;
6791;SDS011;3433;48.730;9.108;2023-07-20T03:55:33;3.50;;;2.40;;
6791;SDS011;3433;48.730;9.108;2023-07-20T03:58:21;2.90;;;2.47;;
6791;SDS011;3433;48.730;9.108;2023-07-20T04:01:08;5.30;;;2.27;;
6791;SDS011;3433;48.730;9.108;2023-07-20T04:03:57;5.07;;;2.77;;
6791;SDS011;3433;48.730;9.108;2023-07-20T04:06:44;5.63;;;3.10;;
6791;SDS011;3433;48.730;9.108;2023-07-20T04:09:31;6.77;;;2.43;;
6791;SDS011;3433;48.730;9.108;2023-07-20T04:12:18;6.33;;;2.30;;
6791;SDS011;3433;48.730;9.108;2023-07-20T04:15:06;3.77;;;2.60;;
6791;SDS011;3433;48.730;9.108;2023-07-20T04:17:54;3.00;;;2.63;;
6791;SDS011;3433;48.730;9.108;2023-07-20T04:20:43;4.30;;;2.50;;
6791;SDS011;3433;48.730;9.108;2023-07-20T04:23:30;2.93;;;2.30;;
6791;SDS011;3433;48.730;9.108;2023-07-20T04:26:17;3.03;;;2.50;;
6791;SDS011;3433;48.730;9.108;2023-07-20T04:29:05;4.10;;;2.70;;
6791;SDS011;3433;48.730;9.108;2023-07-20T04:31:52;2.60;;;2.40;;
6791;SDS011;3433;48.730;9.108;2023-07-20T04:34:39;3.53;;;2.87;;
6791;SDS011;3433;48.730;9.108;2023-07-20T04:37:28;3.20;;;2.90;;
6791;SDS011;3433;48.730;9.108;2023-07-20T04:40:15;2.60;;;2.40;;
6791;SDS011;3433;48.730;9.108;2023-07-20T04:43:02;3.80;;;2.30;;
6791;SDS011;3433;48.730;9.108;2023-07-20T04:45:49;3.57;;;2.33;;
6791;SDS011;3433;48.730;9.108;2023-07-20T04:48:37;3.50;;;2.30;;
6791;SDS011;3433;48.730;9.108;2023-07-20T04:51:26;3.10;;;2.57;;
6791;SDS011;3433;48.730;9.108;2023-07-20T04:54:17;3.33;;;2.70;;
6791;SDS011;3433;48.730;9.108;2023-07-20T04:57:05;2.90;;;2.40;;
6791;SDS011;3433;48.730;9.108;2023-07-20T04:59:56;2.33;;;2.13;;
6791;SDS011;3433;48.730;9.108;2023-07-20T05:02:43;7.93;;;2.53;;
6791;SDS011;3433;48.730;9.108;2023-07-20T05:05:32;4.30;;;2.70;;
6791;SDS011;3433;48.730;9.108;2023-07-20T05:08:19;2.80;;;2.30;;
6791;SDS011;3433;48.730;9.108;2023-07-20T05:11:09;3.23;;;2.73;;
6791;SDS011;3433;48.730;9.108;2023-07-20T05:13:57;3.93;;;2.33;;
6791;SDS011;3433;48.730;9.108;2023-07-20T05:16:44;3.23;;;2.63;;
6791;SDS011;3433;48.730;9.108;2023-07-20T05:19:31;4.90;;;2.77;;
6791;SDS011;3433;48.730;9.108;2023-07-20T05:22:18;4.63;;;2.60;;
6791;SDS011;3433;48.730;9.108;2023-07-20T05:25:06;2.93;;;2.27;;
6791;SDS011;3433;48.730;9.108;2023-07-20T05:27:55;3.33;;;2.80;;
6791;SDS011;3433;48.730;9.108;2023-07-20T05:30:43;5.43;;;2.83;;
6791;SDS011;3433;48.730;9.108;2023-07-20T05:33:30;3.27;;;2.63;;
6791;SDS011;3433;48.730;9.108;2023-07-20T05:36:17;3.20;;;2.57;;
6791;SDS011;3433;48.730;9.108;2023-07-20T05:39:04;4.83;;;2.40;;
6791;SDS011;3433;48.730;9.108;2023-07-20T05:41:51;3.20;;;2.77;;
6791;SDS011;3433;48.730;9.108;2023-07-20T05:44:40;3.60;;;2.80;;
6791;SDS011;3433;48.730;9.108;2023-07-20T05:47:28;3.47;;;2.90;;
6791;SDS011;3433;48.730;9.108;2023-07-20T05:50:16;3.97;;;2.53;;
6791;SDS011;3433;48.730;9.108;2023-07-20T05:53:03;4.87;;;2.77;;
6791;SDS011;3433;48.730;9.108;2023-07-20T05:55:52;6.73;;;2.80;;
6791;SDS011;3433;48.730;9.108;2023-07-20T05:58:39;12.10;;;2.90;;
6791;SDS011;3433;48.730;9.108;2023-07-20T06:01:28;4.03;;;2.87;;
6791;SDS011;3433;48.730;9.108;2023-07-20T06:04:15;5.13;;;2.53;;
6791;SDS011;3433;48.730;9.108;2023-07-20T06:07:02;7.80;;;2.80;;
6791;SDS011;3433;48.730;9.108;2023-07-20T06:09:50;3.67;;;2.43;;
6791;SDS011;3433;48.730;9.108;2023-07-20T06:12:37;3.27;;;2.60;;
6791;SDS011;3433;48.730;9.108;2023-07-20T06:15:24;7.23;;;2.97;;
6791;SDS011;3433;48.730;9.108;2023-07-20T06:18:14;5.20;;;2.60;;
6791;SDS011;3433;48.730;9.108;2023-07-20T06:21:01;3.60;;;2.37;;
6791;SDS011;3433;48.730;9.108;2023-07-20T06:23:49;5.10;;;2.80;;
6791;SDS011;3433;48.730;9.108;2023-07-20T06:26:36;3.93;;;2.33;;
6791;SDS011;3433;48.730;9.108;2023-07-20T06:29:24;4.37;;;2.63;;
6791;SDS011;3433;48.730;9.108;2023-07-20T06:32:11;4.67;;;2.20;;
6791;SDS011;3433;48.730;9.108;2023-07-20T06:35:00;2.90;;;2.60;;
6791;SDS011;3433;48.730;9.108;2023-07-20T06:37:47;4.90;;;2.63;;
6791;SDS011;3433;48.730;9.108;2023-07-20T06:40:35;3.57;;;2.67;;
6791;SDS011;3433;48.730;9.108;2023-07-20T06:43:22;4.83;;;2.30;;
6791;SDS011;3433;48.730;9.108;2023-07-20T06:46:09;2.70;;;2.30;;
6791;SDS011;3433;48.730;9.108;2023-07-20T06:48:59;3.63;;;2.43;;
6791;SDS011;3433;48.730;9.108;2023-07-20T06:51:48;3.07;;;2.63;;
6791;SDS011;3433;48.730;9.108;2023-07-20T06:54:35;3.67;;;2.40;;
6791;SDS011;3433;48.730;9.108;2023-07-20T06:57:22;3.10;;;2.60;;
6791;SDS011;3433;48.730;9.108;2023-07-20T07:00:10;2.60;;;2.40;;
6791;SDS011;3433;48.730;9.108;2023-07-20T07:02:58;3.83;;;2.53;;
6791;SDS011;3433;48.730;9.108;2023-07-20T07:05:46;4.53;;;2.23;;
6791;SDS011;3433;48.730;9.108;2023-07-20T07:08:35;9.70;;;4.00;;
6791;SDS011;3433;48.730;9.108;2023-07-20T07:11:22;4.97;;;2.53;;
6791;SDS011;3433;48.730;9.108;2023-07-20T07:14:09;5.60;;;2.60;;
6791;SDS011;3433;48.730;9.108;2023-07-20T07:16:58;3.17;;;2.53;;
6791;SDS011;3433;48.730;9.108;2023-07-20T07:19:45;3.77;;;2.53;;
6791;SDS011;3433;48.730;9.108;2023-07-20T07:22:32;3.70;;;2.53;;
6791;SDS011;3433;48.730;9.108;2023-07-20T07:25:21;3.63;;;2.90;;
6791;SDS011;3433;48.730;9.108;2023-07-20T07:28:08;3.87;;;2.70;;
6791;SDS011;3433;48.730;9.108;2023-07-20T07:30:55;4.53;;;2.27;;
6791;SDS011;3433;48.730;9.108;2023-07-20T07:33:43;6.40;;;2.37;;
6791;SDS011;3433;48.730;9.108;2023-07-20T07:36:30;10.10;;;3.23;;
6791;SDS011;3433;48.730;9.108;2023-07-20T07:39:17;3.90;;;2.50;;
6791;SDS011;3433;48.730;9.108;2023-07-20T07:42:06;3.37;;;2.57;;
6791;SDS011;3433;48.730;9.108;2023-07-20T07:44:53;5.53;;;3.13;;
6791;SDS011;3433;48.730;9.108;2023-07-20T07:47:40;3.43;;;2.50;;
6791;SDS011;3433;48.730;9.108;2023-07-20T07:50:28;3.00;;;2.70;;
6791;SDS011;3433;48.730;9.108;2023-07-20T07:53:15;4.43;;;2.37;;
6791;SDS011;3433;48.730;9.108;2023-07-20T07:56:02;5.13;;;2.80;;
6791;SDS011;3433;48.730;9.108;2023-07-20T07:58:51;2.93;;;2.70;;
6791;SDS011;3433;48.730;9.108;2023-07-20T08:01:38;2.50;;;2.30;;
6791;SDS011;3433;48.730;9.108;2023-07-20T08:04:26;5.97;;;3.20;;
6791;SDS011;3433;48.730;9.108;2023-07-20T08:07:15;4.83;;;3.40;;
6791;SDS011;3433;48.730;9.108;2023-07-20T08:10:02;4.50;;;3.00;;
6791;SDS011;3433;48.730;9.108;2023-07-20T08:12:50;3.13;;;2.63;;
6791;SDS011;3433;48.730;9.108;2023-07-20T08:15:39;4.87;;;3.07;;
6791;SDS011;3433;48.730;9.108;2023-07-20T08:18:26;2.63;;;2.40;;
6791;SDS011;3433;48.730;9.108;2023-07-20T08:21:13;5.87;;;3.20;;
6791;SDS011;3433;48.730;9.108;2023-07-20T08:24:00;3.33;;;2.50;;
6791;SDS011;3433;48.730;9.108;2023-07-20T08:26:48;3.27;;;2.50;;
6791;SDS011;3433;48.730;9.108;2023-07-20T08:29:35;3.87;;;3.00;;
6791;SDS011;3433;48.730;9.108;2023-07-20T08:32:24;5.20;;;2.23;;
6791;SDS011;3433;48.730;9.108;2023-07-20T08:35:12;2.87;;;2.43;;
6791;SDS011;3433;48.730;9.108;2023-07-20T08:38:00;6.80;;;2.83;;
6791;SDS011;3433;48.730;9.108;2023-07-20T08:40:47;5.20;;;2.27;;
6791;SDS011;3433;48.730;9.108;2023-07-20T08:43:35;2.93;;;2.30;;
6791;SDS011;3433;48.730;9.108;2023-07-20T08:46:26;3.50;;;2.43;;
6791;SDS011;3433;48.730;9.108;2023-07-20T08:49:16;6.30;;;2.70;;
6791;SDS011;3433;48.730;9.108;2023-07-20T08:52:05;5.60;;;2.70;;
6791;SDS011;3433;48.730;9.108;2023-07-20T08:54:53;4.80;;;2.60;;
6791;SDS011;3433;48.730;9.108;2023-07-20T08:57:40;3.13;;;2.70;;
6791;SDS011;3433;48.730;9.108;2023-07-20T09:00:31;3.10;;;2.63;;
6791;SDS011;3433;48.730;9.108;2023-07-20T09:03:18;3.67;;;2.50;;
6791;SDS011;3433;48.730;9.108;2023-07-20T09:06:07;5.53;;;2.77;;
6791;SDS011;3433;48.730;9.108;2023-07-20T09:08:54;4.00;;;1.90;;
6791;SDS011;3433;48.730;9.108;2023-07-20T09:11:42;2.87;;;2.40;;
6791;SDS011;3433;48.730;9.108;2023-07-20T09:14:30;2.20;;;1.97;;
6791;SDS011;3433;48.730;9.108;2023-07-20T09:17:18;3.47;;;2.30;;
6791;SDS011;3433;48.730;9.108;2023-07-20T09:20:05;3.63;;;2.10;;
6791;SDS011;3433;48.730;9.108;2023-07-20T09:22:57;2.83;;;2.30;;
6791;SDS011;3433;48.730;9.108;2023-07-20T09:25:44;3.13;;;2.30;;
6791;SDS011;3433;48.730;9.108;2023-07-20T09:28:39;2.30;;;2.10;;
6791;SDS011;3433;48.730;9.108;2023-07-20T09:31:29;2.60;;;2.37;;
6791;SDS011;3433;48.730;9.108;2023-07-20T09:34:17;2.43;;;2.20;;
6791;SDS011;3433;48.730;9.108;2023-07-20T09:37:05;2.27;;;2.10;;
6791;SDS011;3433;48.730;9.108;2023-07-20T09:39:54;2.63;;;2.20;;
6791;SDS011;3433;48.730;9.108;2023-07-20T09:42:41;3.00;;;2.43;;
6791;SDS011;3433;48.730;9.108;2023-07-20T09:45:29;2.30;;;1.80;;
6791;SDS011;3433;48.730;9.108;2023-07-20T09:48:17;2.70;;;2.30;;
6791;SDS011;3433;48.730;9.108;2023-07-20T09:51:07;2.17;;;1.97;;
6791;SDS011;3433;48.730;9.108;2023-07-20T09:53:55;4.20;;;1.93;;
6791;SDS011;3433;48.730;9.108;2023-07-20T09:56:44;2.53;;;2.10;;
6791;SDS011;3433;48.730;9.108;2023-07-20T09:59:34;2.20;;;1.90;;
6791;SDS011;3433;48.730;9.108;2023-07-20T10:02:23;2.33;;;2.00;;
6791;SDS011;3433;48.730;9.108;2023-07-20T10:05:16;2.77;;;2.27;;
6791;SDS011;3433;48.730;9.108;2023-07-20T10:08:04;4.17;;;1.87;;
6791;SDS011;3433;48.730;9.108;2023-07-20T10:10:57;5.80;;;2.33;;
6791;SDS011;3433;48.730;9.108;2023-07-20T10:13:50;2.73;;;1.70;;
6791;SDS011;3433;48.730;9.108;2023-07-20T10:16:41;1.83;;;1.73;;
6791;SDS011;3433;48.730;9.108;2023-07-20T10:19:34;2.00;;;1.90;;
6791;SDS011;3433;48.730;9.108;2023-07-20T10:22:32;1.73;;;1.63;;
6791;SDS011;3433;48.730;9.108;2023-07-20T10:25:22;1.80;;;1.70;;
6791;SDS011;3433;48.730;9.108;2023-07-20T10:28:11;2.00;;;1.90;;
6791;SDS011;3433;48.730;9.108;2023-07-20T10:30:59;2.37;;;2.17;;
6791;SDS011;3433;48.730;9.108;2023-07-20T10:33:46;3.40;;;2.07;;
6791;SDS011;3433;48.730;9.108;2023-07-20T10:36:43;2.73;;;1.80;;
6791;SDS011;3433;48.730;9.108;2023-07-20T10:39:31;2.00;;;1.83;;
6791;SDS011;3433;48.730;9.108;2023-07-20T10:42:19;2.13;;;1.93;;
6791;SDS011;3433;48.730;9.108;2023-07-20T10:45:07;1.80;;;1.70;;
6791;SDS011;3433;48.730;9.108;2023-07-20T10:47:56;2.13;;;1.63;;
6791;SDS011;3433;48.730;9.108;2023-07-20T10:50:43;2.60;;;1.87;;
6791;SDS011;3433;48.730;9.108;2023-07-20T10:53:31;2.87;;;1.87;;
6791;SDS011;3433;48.730;9.108;2023-07-20T10:56:19;1.73;;;1.60;;
6791;SDS011;3433;48.730;9.108;2023-07-20T10:59:17;9.83;;;1.97;;
6791;SDS011;3433;48.730;9.108;2023-07-20T11:02:06;4.80;;;1.90;;
6791;SDS011;3433;48.730;9.108;2023-07-20T11:04:55;3.40;;;1.50;;
6791;SDS011;3433;48.730;9.108;2023-07-20T11:07:42;2.30;;;1.73;;
6791;SDS011;3433;48.730;9.108;2023-07-20T11:10:30;1.80;;;1.70;;
6791;SDS011;3433;48.730;9.108;2023-07-20T11:13:21;3.00;;;1.70;;
6791;SDS011;3433;48.730;9.108;2023-07-20T11:16:10;4.80;;;1.70;;
6791;SDS011;3433;48.730;9.108;2023-07-20T11:18:57;5.27;;;1.60;;
6791;SDS011;3433;48.730;9.108;2023-07-20T11:21:50;1.97;;;1.73;;
6791;SDS011;3433;48.730;9.108;2023-07-20T11:24:38;1.57;;;1.47;;
6791;SDS011;3433;48.730;9.108;2023-07-20T11:27:26;2.90;;;1.63;;
6791;SDS011;3433;48.730;9.108;2023-07-20T11:30:15;1.70;;;1.60;;
6791;SDS011;3433;48.730;9.108;2023-07-20T11:33:02;1.87;;;1.60;;
6791;SDS011;3433;48.730;9.108;2023-07-20T11:35:50;2.07;;;1.60;;
6791;SDS011;3433;48.730;9.108;2023-07-20T11:38:40;3.53;;;1.63;;
6791;SDS011;3433;48.730;9.108;2023-07-20T11:41:29;1.90;;;1.30;;
6791;SDS011;3433;48.730;9.108;2023-07-20T11:44:16;2.47;;;1.67;;
6791;SDS011;3433;48.730;9.108;2023-07-20T11:47:05;1.70;;;1.60;;
6791;SDS011;3433;48.730;9.108;2023-07-20T11:49:53;1.77;;;1.60;;
6791;SDS011;3433;48.730;9.108;2023-07-20T11:52:41;1.57;;;1.47;;
6791;SDS011;3433;48.730;9.108;2023-07-20T11:55:29;1.30;;;1.20;;
6791;SDS011;3433;48.730;9.108;2023-07-20T11:58:18;1.30;;;1.20;;
6791;SDS011;3433;48.730;9.108;2023-07-20T12:01:06;1.57;;;1.40;;
6791;SDS011;3433;48.730;9.108;2023-07-20T12:03:54;1.90;;;1.80;;
6791;SDS011;3433;48.730;9.108;2023-07-20T12:06:42;3.03;;;1.43;;
6791;SDS011;3433;48.730;9.108;2023-07-20T12:09:31;3.10;;;1.43;;
6791;SDS011;3433;48.730;9.108;2023-07-20T12:12:19;2.30;;;2.00;;
6791;SDS011;3433;48.730;9.108;2023-07-20T12:15:14;1.93;;;1.50;;
6791;SDS011;3433;48.730;9.108;2023-07-20T12:18:01;1.50;;;1.30;;
6791;SDS011;3433;48.730;9.108;2023-07-20T12:20:50;3.53;;;1.40;;
6791;SDS011;3433;48.730;9.108;2023-07-20T12:23:46;1.70;;;1.60;;
6791;SDS011;3433;48.730;9.108;2023-07-20T12:26:33;2.83;;;2.00;;
6791;SDS011;3433;48.730;9.108;2023-07-20T12:29:22;1.53;;;1.40;;
6791;SDS011;3433;48.730;9.108;2023-07-20T12:32:09;2.50;;;1.70;;
6791;SDS011;3433;48.730;9.108;2023-07-20T12:34:56;4.10;;;1.77;;
6791;SDS011;3433;48.730;9.108;2023-07-20T12:37:45;1.80;;;1.70;;
6791;SDS011;3433;48.730;9.108;2023-07-20T12:40:34;3.27;;;1.40;;
6791;SDS011;3433;48.730;9.108;2023-07-20T12:43:22;4.13;;;1.50;;
6791;SDS011;3433;48.730;9.108;2023-07-20T12:46:11;1.30;;;1.20;;
6791;SDS011;3433;48.730;9.108;2023-07-20T12:48:59;4.00;;;1.30;;
6791;SDS011;3433;48.730;9.108;2023-07-20T12:51:46;2.60;;;1.63;;
6791;SDS011;3433;48.730;9.108;2023-07-20T12:54:33;1.53;;;1.43;;
6791;SDS011;3433;48.730;9.108;2023-07-20T12:57:21;2.60;;;1.10;;
6791;SDS011;3433;48.730;9.108;2023-07-20T13:00:09;2.43;;;1.83;;
6791;SDS011;3433;48.730;9.108;2023-07-20T13:02:58;2.60;;;1.60;;
6791;SDS011;3433;48.730;9.108;2023-07-20T13:05:47;1.27;;;1.17;;
6791;SDS011;3433;48.730;9.108;2023-07-20T13:08:35;1.77;;;1.40;;
6791;SDS011;3433;48.730;9.108;2023-07-20T13:11:23;2.07;;;1.60;;
6791;SDS011;3433;48.730;9.108;2023-07-20T13:14:10;2.00;;;1.80;;
6791;SDS011;3433;48.730;9.108;2023-07-20T13:16:58;1.67;;;1.00;;
6791;SDS011;3433;48.730;9.108;2023-07-20T13:19:46;1.40;;;1.30;;
6791;SDS011;3433;48.730;9.108;2023-07-20T13:22:33;3.40;;;2.10;;
6791;SDS011;3433;48.730;9.108;2023-07-20T13:25:21;1.67;;;1.30;;
6791;SDS011;3433;48.730;9.108;2023-07-20T13:28:08;7.00;;;1.77;;
6791;SDS011;3433;48.730;9.108;2023-07-20T13:30:55;1.57;;;1.47;;
6791;SDS011;3433;48.730;9.108;2023-07-20T13:33:42;3.00;;;1.33;;
6791;SDS011;3433;48.730;9.108;2023-07-20T13:36:31;2.17;;;1.97;;
6791;SDS011;3433;48.730;9.108;2023-07-20T13:39:18;1.50;;;1.40;;
6791;SDS011;3433;48.730;9.108;2023-07-20T13:42:09;2.10;;;1.50;;
6791;SDS011;3433;48.730;9.108;2023-07-20T13:44:58;3.80;;;1.20;;
6791;SDS011;3433;48.730;9.108;2023-07-20T13:47:45;1.60;;;1.40;;
6791;SDS011;3433;48.730;9.108;2023-07-20T13:50:32;2.87;;;1.87;;
6791;SDS011;3433;48.730;9.108;2023-07-20T13:53:20;1.93;;;1.80;;
6791;SDS011;3433;48.730;9.108;2023-07-20T13:56:08;3.93;;;1.50;;
6791;SDS011;3433;48.730;9.108;2023-07-20T13:58:55;1.40;;;1.30;;
6791;SDS011;3433;48.730;9.108;2023-07-20T14:01:42;3.07;;;2.07;;
6791;SDS011;3433;48.730;9.108;2023-07-20T14:04:29;4.83;;;2.00;;
6791;SDS011;3433;48.730;9.108;2023-07-20T14:07:16;4.63;;;1.33;;
6791;SDS011;3433;48.730;9.108;2023-07-20T14:10:05;2.70;;;1.53;;
6791;SDS011;3433;48.730;9.108;2023-07-20T14:12:53;2.50;;;1.40;;
6791;SDS011;3433;48.730;9.108;2023-07-20T14:15:40;1.40;;;1.30;;
6791;SDS011;3433;48.730;9.108;2023-07-20T14:18:27;1.77;;;1.40;;
6791;SDS011;3433;48.730;9.108;2023-07-20T14:21:15;3.20;;;2.00;;
6791;SDS011;3433;48.730;9.108;2023-07-20T14:24:03;1.83;;;1.73;;
6791;SDS011;3433;48.730;9.108;2023-07-20T14:26:52;1.70;;;1.60;;
6791;SDS011;3433;48.730;9.108;2023-07-20T14:29:40;2.00;;;1.53;;
6791;SDS011;3433;48.730;9.108;2023-07-20T14:32:27;3.20;;;1.60;;
6791;SDS011;3433;48.730;9.108;2023-07-20T14:35:14;1.80;;;1.70;;
6791;SDS011;3433;48.730;9.108;2023-07-20T14:38:01;1.83;;;1.60;;
6791;SDS011;3433;48.730;9.108;2023-07-20T14:40:48;1.60;;;1.50;;
6791;SDS011;3433;48.730;9.108;2023-07-20T14:43:37;2.57;;;2.37;;
6791;SDS011;3433;48.730;9.108;2023-07-20T14:46:25;1.57;;;1.40;;
6791;SDS011;3433;48.730;9.108;2023-07-20T14:49:12;4.00;;;1.87;;
6791;SDS011;3433;48.730;9.108;2023-07-20T14:51:59;1.50;;;1.30;;
6791;SDS011;3433;48.730;9.108;2023-07-20T14:54:46;1.63;;;1.53;;
6791;SDS011;3433;48.730;9.108;2023-07-20T14:57:33;2.43;;;1.77;;
6791;SDS011;3433;48.730;9.108;2023-07-20T15:00:22;2.20;;;1.53;;
6791;SDS011;3433;48.730;9.108;2023-07-20T15:03:10;2.17;;;1.80;;
6791;SDS011;3433;48.730;9.108;2023-07-20T15:05:57;2.20;;;1.80;;
6791;SDS011;3433;48.730;9.108;2023-07-20T15:08:44;1.93;;;1.50;;
6791;SDS011;3433;48.730;9.108;2023-07-20T15:11:32;2.47;;;1.70;;
6791;SDS011;3433;48.730;9.108;2023-07-20T15:14:19;1.70;;;1.60;;
6791;SDS011;3433;48.730;9.108;2023-07-20T15:17:08;2.20;;;1.87;;
6791;SDS011;3433;48.730;9.108;2023-07-20T15:19:55;2.10;;;1.30;;
6791;SDS011;3433;48.730;9.108;2023-07-20T15:22:43;1.67;;;1.47;;
6791;SDS011;3433;48.730;9.108;2023-07-20T15:25:30;2.07;;;1.60;;
6791;SDS011;3433;48.730;9.108;2023-07-20T15:28:17;4.37;;;1.70;;
6791;SDS011;3433;48.730;9.108;2023-07-20T15:31:04;1.57;;;1.47;;
6791;SDS011;3433;48.730;9.108;2023-07-20T15:33:53;2.30;;;1.70;;
6791;SDS011;3433;48.730;9.108;2023-07-20T15:36:41;1.70;;;1.60;;
6791;SDS011;3433;48.730;9.108;2023-07-20T15:39:29;1.77;;;1.63;;
6791;SDS011;3433;48.730;9.108;2023-07-20T15:42:16;3.50;;;1.60;;
6791;SDS011;3433;48.730;9.108;2023-07-20T15:45:03;1.50;;;1.33;;
6791;SDS011;3433;48.730;9.108;2023-07-20T15:47:51;1.70;;;1.60;;
6791;SDS011;3433;48.730;9.108;2023-07-20T15:50:40;2.27;;;1.90;;
6791;SDS011;3433;48.730;9.108;2023-07-20T15:53:28;3.53;;;1.80;;
6791;SDS011;3433;48.730;9.108;2023-07-20T15:56:15;2.40;;;1.83;;
6791;SDS011;3433;48.730;9.108;2023-07-20T15:59:02;4.00;;;1.83;;
6791;SDS011;3433;48.730;9.108;2023-07-20T16:01:50;1.80;;;1.70;;
6791;SDS011;3433;48.730;9.108;2023-07-20T16:04:37;1.70;;;1.60;;
6791;SDS011;3433;48.730;9.108;2023-07-20T16:07:26;1.87;;;1.77;;
6791;SDS011;3433;48.730;9.108;2023-07-20T16:10:13;1.73;;;1.43;;
6791;SDS011;3433;48.730;9.108;2023-07-20T16:13:01;1.70;;;1.27;;
6791;SDS011;3433;48.730;9.108;2023-07-20T16:15:49;2.57;;;1.90;;
6791;SDS011;3433;48.730;9.108;2023-07-20T16:18:36;1.90;;;1.80;;
6791;SDS011;3433;48.730;9.108;2023-07-20T16:21:23;2.03;;;1.87;;
6791;SDS011;3433;48.730;9.108;2023-07-20T16:24:12;1.87;;;1.47;;
6791;SDS011;3433;48.730;9.108;2023-07-20T16:26:59;1.70;;;1.60;;
6791;SDS011;3433;48.730;9.108;2023-07-20T16:29:46;2.70;;;1.87;;
6791;SDS011;3433;48.730;9.108;2023-07-20T16:32:34;1.80;;;1.70;;
6791;SDS011;3433;48.730;9.108;2023-07-20T16:35:21;6.43;;;2.00;;
6791;SDS011;3433;48.730;9.108;2023-07-20T16:38:09;1.60;;;1.50;;
6791;SDS011;3433;48.730;9.108;2023-07-20T16:40:59;2.27;;;1.57;;
6791;SDS011;3433;48.730;9.108;2023-07-20T16:43:46;1.80;;;1.70;;
6791;SDS011;3433;48.730;9.108;2023-07-20T16:46:33;1.53;;;1.43;;
6791;SDS011;3433;48.730;9.108;2023-07-20T16:49:21;2.27;;;1.50;;
6791;SDS011;3433;48.730;9.108;2023-07-20T16:52:08;2.03;;;1.80;;
6791;SDS011;3433;48.730;9.108;2023-07-20T16:54:55;2.00;;;1.50;;
6791;SDS011;3433;48.730;9.108;2023-07-20T16:57:44;1.43;;;1.33;;
6791;SDS011;3433;48.730;9.108;2023-07-20T17:00:32;1.80;;;1.70;;
6791;SDS011;3433;48.730;9.108;2023-07-20T17:03:21;15.63;;;2.10;;
6791;SDS011;3433;48.730;9.108;2023-07-20T17:06:10;2.07;;;1.77;;
6791;SDS011;3433;48.730;9.108;2023-07-20T17:08:58;3.17;;;1.80;;
6791;SDS011;3433;48.730;9.108;2023-07-20T17:11:46;2.23;;;1.73;;
6791;SDS011;3433;48.730;9.108;2023-07-20T17:14:35;2.47;;;1.80;;
6791;SDS011;3433;48.730;9.108;2023-07-20T17:17:23;1.50;;;1.40;;
6791;SDS011;3433;48.730;9.108;2023-07-20T17:28:05;1.83;;;1.63;;
6791;SDS011;3433;48.730;9.108;2023-07-20T17:31:00;2.03;;;1.93;;
6791;SDS011;3433;48.730;9.108;2023-07-20T17:33:47;1.80;;;1.70;;
6791;SDS011;3433;48.730;9.108;2023-07-20T17:36:35;3.80;;;1.60;;